createdAt,value
2019-02-16T00:00:56.915Z,65.53
2019-02-16T00:06:02.155Z,64.56
2019-02-16T00:11:07.523Z,64.83
2019-02-16T00:16:12.937Z,64.71
2019-02-16T00:21:18.336Z,65.33
2019-02-16T00:26:23.698Z,65.29
2019-02-16T00:31:29.029Z,64.69
2019-02-16T00:36:34.355Z,65.41
2019-02-16T00:41:39.497Z,65.23
2019-02-16T00:46:44.580Z,64.40
2019-02-16T00:51:50.072Z,63.45
2019-02-16T00:56:55.432Z,59.85
2019-02-16T01:02:00.489Z,60.01
2019-02-16T01:07:05.948Z,60.67
2019-02-16T01:12:11.408Z,57.75
2019-02-16T01:17:16.845Z,57.73
2019-02-16T01:22:22.295Z,57.57
2019-02-16T01:27:27.478Z,59.79
2019-02-16T01:32:32.746Z,61.50
2019-02-16T01:37:38.210Z,62.41
2019-02-16T01:42:43.474Z,62.81
2019-02-16T01:47:48.731Z,62.67
2019-02-16T01:52:54.072Z,63.00
2019-02-16T01:57:59.435Z,61.71
2019-02-16T02:03:04.899Z,63.31
2019-02-16T02:08:10.348Z,64.05
2019-02-16T02:13:15.712Z,64.93
2019-02-16T02:18:21.076Z,65.65
2019-02-16T02:23:26.325Z,65.91
2019-02-16T02:28:31.580Z,66.72
2019-02-16T02:33:36.740Z,66.79
2019-02-16T02:38:42.003Z,66.94
2019-02-16T02:43:47.356Z,67.12
2019-02-16T02:48:52.812Z,67.55
2019-02-16T02:53:58.382Z,67.42
2019-02-16T02:59:03.740Z,67.85
2019-02-16T03:04:09.101Z,67.92
2019-02-16T03:09:14.549Z,68.08
2019-02-16T03:14:19.817Z,68.07
2019-02-16T03:19:25.065Z,67.88
2019-02-16T03:24:30.287Z,68.06
2019-02-16T03:29:44.543Z,68.17
2019-02-16T03:35:10.733Z,68.35
2019-02-16T03:40:15.990Z,68.72
2019-02-16T03:45:21.185Z,69.15
2019-02-16T03:50:26.401Z,69.18
2019-02-16T03:55:31.951Z,69.02
2019-02-16T04:00:37.236Z,69.24
2019-02-16T04:05:42.473Z,69.45
2019-02-16T04:10:47.646Z,69.90
2019-02-16T04:15:52.889Z,70.00
2019-02-16T04:20:57.941Z,70.26
2019-02-16T04:26:04.843Z,70.34
2019-02-16T04:31:10.203Z,70.38
2019-02-16T04:36:15.428Z,70.45
2019-02-16T04:41:21.040Z,70.33
2019-02-16T04:46:26.382Z,70.29
2019-02-16T04:51:31.743Z,70.15
2019-02-16T04:56:37.101Z,69.78
2019-02-16T05:01:42.659Z,68.96
2019-02-16T05:06:48.244Z,68.45
2019-02-16T05:11:53.568Z,67.89
2019-02-16T05:16:59.337Z,67.13
2019-02-16T05:22:04.607Z,66.70
2019-02-16T05:27:09.861Z,65.72
2019-02-16T05:32:15.221Z,65.31
2019-02-16T05:37:20.428Z,65.58
2019-02-16T05:42:25.657Z,65.90
2019-02-16T05:47:30.886Z,66.39
2019-02-16T05:52:36.140Z,67.21
2019-02-16T05:57:41.400Z,67.23
2019-02-16T06:02:46.566Z,67.76
2019-02-16T06:07:51.821Z,67.76
2019-02-16T06:12:57.021Z,68.03
2019-02-16T06:18:02.414Z,68.07
2019-02-16T06:23:07.894Z,68.19
2019-02-16T06:28:13.245Z,68.23
2019-02-16T06:33:18.518Z,68.10
2019-02-16T06:38:23.670Z,66.46
2019-02-16T06:43:28.748Z,64.58
2019-02-16T06:48:34.245Z,65.15
2019-02-16T06:53:39.520Z,64.05
2019-02-16T06:58:44.986Z,61.93
2019-02-16T07:03:50.706Z,62.94
2019-02-16T07:08:56.006Z,63.60
2019-02-16T07:14:01.249Z,64.03
2019-02-16T07:19:08.266Z,64.34
2019-02-16T07:24:13.622Z,64.45
2019-02-16T07:29:19.092Z,64.72
2019-02-16T07:34:24.446Z,64.45
2019-02-16T07:39:29.806Z,64.54
2019-02-16T07:44:42.941Z,64.72
2019-02-16T07:50:05.698Z,64.92
2019-02-16T07:55:12.558Z,65.07
2019-02-16T08:00:19.572Z,65.28
2019-02-16T08:05:32.516Z,65.35
2019-02-16T08:10:39.500Z,65.06
2019-02-16T08:15:49.115Z,64.66
2019-02-16T08:20:58.891Z,62.19
2019-02-16T08:26:08.816Z,59.81
2019-02-16T08:31:15.926Z,60.06
2019-02-16T08:36:23.125Z,59.64
2019-02-16T08:41:48.261Z,58.38
2019-02-16T08:47:11.527Z,56.99
2019-02-16T08:52:18.428Z,56.03
2019-02-16T08:57:34.535Z,56.27
2019-02-16T09:02:53.526Z,54.21
2019-02-16T09:08:03.235Z,49.61
2019-02-16T09:13:19.067Z,47.69
2019-02-16T09:18:31.802Z,47.63
2019-02-16T09:23:38.607Z,47.75
2019-02-16T09:28:48.651Z,47.43
2019-02-16T09:34:10.634Z,47.73
2019-02-16T09:39:18.664Z,47.73
2019-02-16T09:44:25.730Z,47.90
2019-02-16T09:49:41.644Z,48.05
2019-02-16T09:55:03.585Z,48.71
2019-02-16T10:00:23.944Z,49.53
2019-02-16T10:05:39.882Z,50.01
2019-02-16T10:10:57.149Z,49.36
2019-02-16T10:16:18.995Z,49.26
2019-02-16T10:21:42.693Z,48.44
2019-02-16T10:26:49.671Z,47.88
2019-02-16T10:31:57.800Z,48.33
2019-02-16T10:37:10.346Z,46.99
2019-02-16T10:42:23.164Z,46.45
2019-02-16T10:47:33.036Z,45.15
2019-02-16T10:52:42.386Z,44.70
2019-02-16T10:57:58.197Z,46.01
2019-02-16T11:03:05.414Z,45.36
2019-02-16T11:08:15.359Z,45.82
2019-02-16T11:13:24.892Z,46.63
2019-02-16T11:18:34.990Z,46.46
2019-02-16T11:23:45.454Z,46.26
2019-02-16T11:28:55.431Z,46.77
2019-02-16T11:34:02.351Z,44.72
2019-02-16T11:39:10.900Z,43.80
2019-02-16T11:44:23.559Z,44.74
2019-02-16T11:49:50.905Z,45.16
2019-02-16T11:55:12.756Z,43.09
2019-02-16T12:00:28.197Z,42.84
2019-02-16T12:05:35.289Z,43.07
2019-02-16T12:10:42.038Z,42.51
2019-02-16T12:15:51.839Z,42.68
2019-02-16T12:21:04.427Z,42.34
2019-02-16T12:26:11.389Z,42.92
2019-02-16T12:31:24.106Z,41.61
2019-02-16T12:36:31.108Z,41.00
2019-02-16T12:41:37.870Z,40.43
2019-02-16T12:46:44.751Z,39.65
2019-02-16T12:51:51.847Z,40.56
2019-02-16T12:57:14.034Z,41.10
2019-02-16T13:02:20.933Z,39.67
2019-02-16T13:07:27.855Z,39.97
2019-02-16T13:12:52.858Z,38.96
2019-02-16T13:18:02.206Z,38.16
2019-02-16T13:23:27.217Z,38.91
2019-02-16T13:28:47.637Z,38.86
2019-02-16T13:33:54.966Z,38.80
2019-02-16T13:39:02.045Z,38.60
2019-02-16T13:44:13.412Z,38.13
2019-02-16T13:49:23.194Z,38.08
2019-02-16T13:54:33.332Z,39.05
2019-02-16T13:59:45.997Z,38.75
2019-02-16T14:05:10.925Z,39.87
2019-02-16T14:10:18.118Z,39.85
2019-02-16T14:15:29.550Z,39.18
2019-02-16T14:20:34.553Z,39.75
2019-02-16T14:25:44.896Z,39.88
2019-02-16T14:30:48.334Z,38.83
2019-02-16T14:35:54.228Z,37.15
2019-02-16T14:40:59.787Z,35.91
2019-02-16T14:46:05.259Z,35.89
2019-02-16T14:51:10.621Z,35.92
2019-02-16T14:56:15.993Z,36.66
2019-02-16T15:01:21.586Z,38.04
2019-02-16T15:06:27.007Z,39.19
2019-02-16T15:11:32.557Z,39.93
2019-02-16T15:16:37.776Z,40.96
2019-02-16T15:21:42.985Z,42.13
2019-02-16T15:26:48.205Z,42.70
2019-02-16T15:31:53.385Z,43.46
2019-02-16T15:36:59.250Z,44.33
2019-02-16T15:42:04.711Z,44.88
2019-02-16T15:47:09.961Z,45.23
2019-02-16T15:52:15.480Z,46.01
2019-02-16T15:57:20.890Z,46.71
2019-02-16T16:02:26.145Z,47.60
2019-02-16T16:07:31.509Z,47.73
2019-02-16T16:12:38.699Z,48.82
2019-02-16T16:17:45.606Z,48.55
2019-02-16T16:22:52.596Z,49.12
2019-02-16T16:28:02.644Z,49.76
2019-02-16T16:33:12.331Z,50.06
2019-02-16T16:38:25.463Z,50.37
2019-02-16T16:43:49.732Z,50.68
2019-02-16T16:48:59.184Z,50.37
2019-02-16T16:54:08.666Z,50.19
2019-02-16T16:59:27.764Z,50.07
2019-02-16T17:04:37.429Z,50.10
2019-02-16T17:09:49.845Z,49.69
2019-02-16T17:14:59.824Z,49.59
2019-02-16T17:20:24.530Z,49.68
2019-02-16T17:25:40.758Z,50.01
2019-02-16T17:30:50.510Z,49.75
2019-02-16T17:36:03.286Z,49.78
2019-02-16T17:41:19.157Z,49.45
2019-02-16T17:46:29.228Z,49.56
2019-02-16T17:51:45.230Z,49.63
2019-02-16T17:57:10.208Z,49.74
2019-02-16T18:02:20.114Z,49.58
2019-02-16T18:07:29.971Z,49.58
2019-02-16T18:12:42.793Z,49.49
2019-02-16T18:18:06.591Z,49.20
2019-02-16T18:23:13.580Z,48.42
2019-02-16T18:28:23.251Z,47.50
2019-02-16T18:33:45.376Z,47.50
2019-02-16T18:39:04.192Z,47.38
2019-02-16T18:44:21.452Z,47.24
2019-02-16T18:49:37.536Z,47.09
2019-02-16T18:54:44.437Z,46.76
2019-02-16T19:00:03.505Z,47.02
2019-02-16T19:05:20.429Z,46.86
2019-02-16T19:10:27.227Z,47.27
2019-02-16T19:15:40.371Z,47.27
2019-02-16T19:20:50.528Z,47.44
2019-02-16T19:26:00.189Z,47.26
2019-02-16T19:31:06.991Z,47.61
2019-02-16T19:36:13.723Z,47.61
2019-02-16T19:41:20.562Z,47.68
2019-02-16T19:46:33.409Z,48.33
2019-02-16T19:51:56.778Z,48.33
2019-02-16T19:57:03.606Z,47.80
2019-02-16T20:02:13.337Z,47.80
2019-02-16T20:07:29.240Z,47.66
2019-02-16T20:12:36.069Z,47.99
2019-02-16T20:17:57.805Z,47.78
2019-02-16T20:23:07.650Z,47.79
2019-02-16T20:28:14.555Z,48.01
2019-02-16T20:33:21.604Z,48.11
2019-02-16T20:38:43.488Z,48.40
2019-02-16T20:44:02.682Z,48.42
2019-02-16T20:49:18.784Z,48.43
2019-02-16T20:54:31.812Z,48.43
2019-02-16T20:59:48.025Z,49.29
2019-02-16T21:05:03.858Z,49.82
2019-02-16T21:10:14.205Z,49.82
2019-02-16T21:15:21.373Z,49.66
2019-02-16T21:20:34.153Z,49.66
2019-02-16T21:25:41.029Z,49.80
2019-02-16T21:30:53.763Z,49.90
2019-02-16T21:36:03.935Z,50.21
2019-02-16T21:41:19.603Z,50.22
2019-02-16T21:46:29.184Z,50.22
2019-02-16T21:51:42.247Z,50.40
2019-02-16T21:56:51.993Z,50.62
2019-02-16T22:02:17.015Z,51.00
2019-02-16T22:07:39.996Z,51.58
2019-02-16T22:12:49.746Z,51.58
2019-02-16T22:17:55.006Z,51.44
2019-02-16T22:23:00.568Z,51.68
2019-02-16T22:28:05.822Z,51.83
2019-02-16T22:33:11.326Z,51.98
2019-02-16T22:38:16.539Z,52.07
2019-02-16T22:43:21.716Z,52.63
2019-02-16T22:48:28.911Z,52.78
2019-02-16T22:53:34.099Z,52.78
2019-02-16T22:58:39.316Z,53.21
2019-02-16T23:03:44.702Z,53.23
2019-02-16T23:08:50.036Z,53.86
2019-02-16T23:13:55.598Z,53.95
2019-02-16T23:19:00.819Z,54.70
2019-02-16T23:24:06.167Z,54.70
2019-02-16T23:29:11.821Z,55.35
2019-02-16T23:34:17.284Z,55.72
2019-02-16T23:39:22.482Z,56.16
2019-02-16T23:44:27.846Z,56.72
2019-02-16T23:49:33.416Z,57.52
2019-02-16T23:54:38.769Z,57.60
2019-02-16T23:59:45.427Z,58.06
